createdAt,value
2019-06-10T00:00:41.861Z,17.60
2019-06-10T00:03:11.702Z,18.32
2019-06-10T00:05:41.515Z,18.62
2019-06-10T00:08:11.954Z,18.62
2019-06-10T00:10:42.077Z,18.20
2019-06-10T00:13:11.757Z,17.20
2019-06-10T00:15:41.163Z,18.27
2019-06-10T00:18:33.401Z,18.52
2019-06-10T00:20:41.124Z,18.50
2019-06-10T00:23:12.107Z,17.40
2019-06-10T00:25:42.390Z,18.35
2019-06-10T00:28:12.112Z,17.87
2019-06-10T00:30:41.395Z,18.00
2019-06-10T00:33:12.586Z,18.60
2019-06-10T00:35:41.362Z,19.10
2019-06-10T00:38:13.774Z,19.12
2019-06-10T00:40:41.663Z,19.75
2019-06-10T00:43:13.274Z,19.00
2019-06-10T00:45:41.420Z,19.50
2019-06-10T00:48:20.200Z,19.92
2019-06-10T00:50:41.451Z,18.85
2019-06-10T00:53:14.039Z,19.55
2019-06-10T00:55:41.715Z,19.27
2019-06-10T00:58:13.683Z,18.75
2019-06-10T01:00:41.744Z,19.20
2019-06-10T01:03:13.504Z,18.32
2019-06-10T01:05:42.202Z,18.62
2019-06-10T01:08:15.016Z,18.02
2019-06-10T01:10:43.829Z,20.10
2019-06-10T01:13:14.003Z,18.23
2019-06-10T01:15:43.095Z,19.20
2019-06-10T01:18:30.261Z,19.35
2019-06-10T01:20:42.434Z,18.67
2019-06-10T01:23:13.518Z,20.55
2019-06-10T01:25:42.464Z,19.23
2019-06-10T01:28:14.637Z,18.35
2019-06-10T01:30:41.685Z,18.98
2019-06-10T01:33:12.307Z,19.87
2019-06-10T01:35:41.608Z,20.57
2019-06-10T01:38:12.801Z,20.70
2019-06-10T01:40:42.327Z,20.10
2019-06-10T01:43:13.985Z,20.23
2019-06-10T01:45:42.293Z,19.37
2019-06-10T01:48:13.097Z,18.60
2019-06-10T01:50:41.462Z,19.55
2019-06-10T01:53:13.607Z,19.62
2019-06-10T01:55:41.810Z,20.45
2019-06-10T01:58:14.348Z,19.90
2019-06-10T02:00:55.104Z,19.55
2019-06-10T02:03:24.088Z,18.35
2019-06-10T02:05:52.757Z,19.67
2019-06-10T02:08:22.200Z,20.65
2019-06-10T02:10:51.122Z,20.25
2019-06-10T02:13:32.541Z,21.27
2019-06-10T02:16:02.553Z,21.12
2019-06-10T02:18:32.002Z,20.57
2019-06-10T02:21:01.397Z,22.00
2019-06-10T02:23:31.411Z,23.10
2019-06-10T02:26:01.645Z,20.27
2019-06-10T02:28:31.871Z,21.70
2019-06-10T02:31:02.982Z,24.15
2019-06-10T02:33:35.916Z,23.52
2019-06-10T02:36:04.010Z,24.25
2019-06-10T02:38:37.888Z,24.85
2019-06-10T02:41:04.084Z,23.25
2019-06-10T02:43:37.440Z,22.37
2019-06-10T02:46:04.649Z,23.35
2019-06-10T02:48:35.375Z,23.18
2019-06-10T02:51:08.146Z,23.75
2019-06-10T02:53:37.642Z,22.40
2019-06-10T02:56:07.386Z,25.05
2019-06-10T02:58:38.880Z,23.67
2019-06-10T03:01:06.937Z,23.53
2019-06-10T03:03:43.914Z,21.20
2019-06-10T03:06:08.650Z,22.95
2019-06-10T03:08:37.019Z,22.73
2019-06-10T03:11:06.110Z,21.90
2019-06-10T03:13:34.744Z,21.50
2019-06-10T03:16:13.120Z,22.77
2019-06-10T03:18:43.424Z,21.40
2019-06-10T03:21:12.471Z,24.95
2019-06-10T03:23:42.694Z,22.32
2019-06-10T03:26:12.338Z,22.90
2019-06-10T03:28:42.833Z,20.90
2019-06-10T03:31:15.191Z,20.57
2019-06-10T03:33:47.324Z,20.90
2019-06-10T03:36:12.596Z,19.57
2019-06-10T03:38:43.286Z,20.82
2019-06-10T03:41:12.425Z,18.85
2019-06-10T03:43:42.882Z,18.82
2019-06-10T03:46:13.664Z,22.75
2019-06-10T03:48:43.295Z,24.60
2019-06-10T03:51:12.702Z,21.68
2019-06-10T03:53:42.544Z,19.62
2019-06-10T03:56:12.802Z,18.65
2019-06-10T03:58:43.052Z,19.77
2019-06-10T04:01:12.414Z,20.60
2019-06-10T04:03:42.710Z,20.05
2019-06-10T04:06:12.895Z,20.43
2019-06-10T04:08:43.304Z,19.95
2019-06-10T04:11:12.404Z,19.12
2019-06-10T04:13:43.083Z,22.73
2019-06-10T04:16:12.994Z,21.77
2019-06-10T04:18:43.042Z,23.45
2019-06-10T04:21:12.938Z,20.95
2019-06-10T04:23:42.476Z,21.30
2019-06-10T04:26:12.736Z,25.92
2019-06-10T04:28:42.909Z,27.65
2019-06-10T04:31:13.089Z,26.50
2019-06-10T04:33:42.419Z,25.97
2019-06-10T04:36:13.331Z,27.95
2019-06-10T04:38:43.140Z,27.30
2019-06-10T04:41:12.627Z,25.72
2019-06-10T04:43:43.163Z,25.52
2019-06-10T04:46:12.600Z,22.87
2019-06-10T04:48:42.615Z,21.65
2019-06-10T04:51:12.919Z,23.05
2019-06-10T04:53:43.557Z,21.75
2019-06-10T04:56:12.427Z,20.92
2019-06-10T04:58:43.287Z,21.48
2019-06-10T05:01:12.356Z,16.93
2019-06-10T05:03:43.137Z,17.27
2019-06-10T05:06:12.300Z,16.67
2019-06-10T05:08:42.604Z,16.02
2019-06-10T05:11:12.834Z,15.18
2019-06-10T05:13:42.860Z,16.00
2019-06-10T05:16:12.510Z,15.45
2019-06-10T05:18:42.377Z,15.38
2019-06-10T05:21:13.049Z,15.53
2019-06-10T05:23:43.096Z,15.68
2019-06-10T05:26:13.294Z,15.63
2019-06-10T05:28:43.294Z,14.35
2019-06-10T05:31:12.983Z,15.80
2019-06-10T05:33:42.599Z,15.18
2019-06-10T05:36:13.251Z,15.85
2019-06-10T05:38:43.492Z,14.55
2019-06-10T05:41:13.373Z,13.75
2019-06-10T05:43:43.072Z,15.08
2019-06-10T05:46:13.406Z,15.20
2019-06-10T05:48:43.716Z,15.23
2019-06-10T05:51:12.764Z,14.95
2019-06-10T05:53:42.685Z,15.45
2019-06-10T05:56:12.916Z,14.68
2019-06-10T05:58:43.594Z,13.45
2019-06-10T06:01:13.192Z,13.45
2019-06-10T06:03:43.879Z,14.05
2019-06-10T06:06:12.710Z,14.85
2019-06-10T06:08:42.866Z,13.35
2019-06-10T06:11:12.696Z,13.78
2019-06-10T06:13:43.169Z,13.22
2019-06-10T06:16:12.601Z,13.38
2019-06-10T06:18:42.197Z,13.62
2019-06-10T06:21:22.403Z,12.98
2019-06-10T06:23:43.651Z,13.62
2019-06-10T06:26:16.215Z,13.55
2019-06-10T06:28:44.490Z,12.58
2019-06-10T06:31:13.146Z,12.50
2019-06-10T06:33:43.346Z,13.70
2019-06-10T06:36:12.639Z,13.70
2019-06-10T06:38:43.773Z,13.72
2019-06-10T06:41:13.666Z,14.53
2019-06-10T06:43:45.250Z,13.48
2019-06-10T06:46:13.058Z,12.85
2019-06-10T06:48:43.785Z,13.13
2019-06-10T06:51:13.060Z,13.15
2019-06-10T06:53:50.877Z,12.07
2019-06-10T06:56:12.764Z,14.63
2019-06-10T06:58:43.320Z,12.60
2019-06-10T07:01:14.713Z,14.38
2019-06-10T07:03:45.187Z,14.83
2019-06-10T07:06:14.718Z,14.05
2019-06-10T07:09:00.286Z,14.10
2019-06-10T07:11:18.022Z,14.50
2019-06-10T07:13:46.638Z,12.93
2019-06-10T07:16:15.262Z,12.78
2019-06-10T07:18:49.806Z,11.60
2019-06-10T07:21:14.348Z,12.43
2019-06-10T07:23:46.908Z,12.07
2019-06-10T07:26:13.419Z,11.85
2019-06-10T07:28:45.690Z,13.03
2019-06-10T07:31:23.139Z,12.60
2019-06-10T07:33:45.800Z,11.85
2019-06-10T07:36:13.409Z,11.95
2019-06-10T07:38:47.083Z,12.05
2019-06-10T07:41:12.676Z,12.15
2019-06-10T07:43:48.977Z,13.50
2019-06-10T07:46:13.385Z,13.13
2019-06-10T07:48:46.456Z,12.15
2019-06-10T07:51:13.287Z,11.93
2019-06-10T07:53:45.116Z,13.00
2019-06-10T07:56:13.018Z,12.20
2019-06-10T07:58:45.426Z,11.75
2019-06-10T08:01:13.223Z,10.88
2019-06-10T08:03:45.060Z,11.55
2019-06-10T08:06:12.788Z,11.68
2019-06-10T08:08:44.851Z,11.97
2019-06-10T08:11:13.619Z,11.43
2019-06-10T08:13:45.697Z,11.30
2019-06-10T08:16:13.208Z,13.30
2019-06-10T08:19:11.217Z,12.15
2019-06-10T08:21:12.548Z,11.87
2019-06-10T08:23:45.038Z,10.50
2019-06-10T08:26:12.728Z,10.65
2019-06-10T08:28:42.593Z,10.30
2019-06-10T08:31:12.472Z,10.20
2019-06-10T08:33:44.342Z,11.15
2019-06-10T08:36:13.506Z,10.58
2019-06-10T08:38:45.020Z,10.65
2019-06-10T08:41:12.503Z,10.65
2019-06-10T08:43:44.695Z,10.30
2019-06-10T08:46:13.178Z,10.08
2019-06-10T08:48:45.846Z,8.63
2019-06-10T08:51:12.659Z,9.10
2019-06-10T08:53:44.671Z,10.40
2019-06-10T08:56:13.128Z,9.67
2019-06-10T08:58:45.675Z,10.30
2019-06-10T09:01:13.316Z,9.83
2019-06-10T09:03:46.450Z,9.58
2019-06-10T09:06:13.227Z,9.70
2019-06-10T09:08:45.821Z,9.53
2019-06-10T09:11:13.069Z,10.10
2019-06-10T09:13:46.313Z,9.60
2019-06-10T09:16:18.555Z,9.40
2019-06-10T09:18:47.322Z,9.65
2019-06-10T09:21:13.085Z,8.75
2019-06-10T09:23:43.489Z,9.65
2019-06-10T09:26:12.583Z,10.08
2019-06-10T09:28:45.029Z,9.30
2019-06-10T09:31:13.981Z,9.30
2019-06-10T09:33:47.930Z,9.60
2019-06-10T09:36:12.687Z,8.43
2019-06-10T09:38:45.265Z,8.38
2019-06-10T09:41:14.166Z,8.65
2019-06-10T09:43:47.288Z,9.30
2019-06-10T09:46:14.688Z,9.48
2019-06-10T09:48:46.969Z,9.68
2019-06-10T09:51:13.878Z,9.63
2019-06-10T09:53:51.393Z,9.85
2019-06-10T09:56:13.022Z,10.08
2019-06-10T09:58:44.641Z,8.83
2019-06-10T10:01:13.389Z,9.23
2019-06-10T10:03:46.821Z,9.10
2019-06-10T10:06:15.789Z,11.50
2019-06-10T10:08:45.972Z,8.30
2019-06-10T10:11:13.587Z,9.45
2019-06-10T10:13:45.286Z,10.88
2019-06-10T10:16:13.246Z,9.80
2019-06-10T10:18:45.834Z,10.35
2019-06-10T10:21:13.194Z,10.32
2019-06-10T10:23:56.848Z,10.10
2019-06-10T10:26:13.278Z,10.30
2019-06-10T10:28:48.038Z,10.10
2019-06-10T10:31:15.239Z,10.10
2019-06-10T10:33:44.302Z,9.90
2019-06-10T10:36:14.189Z,9.35
2019-06-10T10:38:42.930Z,9.98
2019-06-10T10:41:13.305Z,10.28
2019-06-10T10:43:43.761Z,9.77
2019-06-10T10:46:13.785Z,9.30
2019-06-10T10:48:43.135Z,10.00
2019-06-10T10:51:12.990Z,9.88
2019-06-10T10:53:48.243Z,8.58
2019-06-10T10:56:13.059Z,8.83
2019-06-10T10:58:44.979Z,8.88
2019-06-10T11:01:14.934Z,8.67
2019-06-10T11:03:45.082Z,8.60
2019-06-10T11:06:13.339Z,8.08
2019-06-10T11:08:44.211Z,8.70
2019-06-10T11:11:13.931Z,9.70
2019-06-10T11:13:45.470Z,9.60
2019-06-10T11:16:14.545Z,9.08
2019-06-10T11:18:43.221Z,8.40
2019-06-10T11:21:13.309Z,7.53
2019-06-10T11:23:43.708Z,6.92
2019-06-10T11:26:13.248Z,7.70
2019-06-10T11:28:43.039Z,6.75
2019-06-10T11:31:13.732Z,7.03
2019-06-10T11:33:43.418Z,6.40
2019-06-10T11:36:13.497Z,6.95
2019-06-10T11:38:42.318Z,6.60
2019-06-10T11:41:13.376Z,7.35
2019-06-10T11:43:42.969Z,7.20
2019-06-10T11:46:13.162Z,7.25
2019-06-10T11:48:43.442Z,8.20
2019-06-10T11:51:13.280Z,8.23
2019-06-10T11:53:43.988Z,8.18
2019-06-10T11:56:13.205Z,7.37
2019-06-10T11:58:43.342Z,10.00
2019-06-10T12:01:13.100Z,9.08
2019-06-10T12:03:43.186Z,9.05
2019-06-10T12:06:13.541Z,8.75
2019-06-10T12:08:43.411Z,8.47
2019-06-10T12:11:13.015Z,10.05
2019-06-10T12:13:42.889Z,9.63
2019-06-10T12:17:11.332Z,9.38
2019-06-10T12:18:42.733Z,8.87
2019-06-10T12:21:13.227Z,8.18
2019-06-10T12:23:43.628Z,8.13
2019-06-10T12:26:12.415Z,8.20
2019-06-10T12:28:43.132Z,8.48
2019-06-10T12:31:13.430Z,8.83
2019-06-10T12:33:42.222Z,8.73
2019-06-10T12:36:12.790Z,8.80
2019-06-10T12:38:43.433Z,9.48
2019-06-10T12:41:13.942Z,8.20
2019-06-10T12:43:43.388Z,8.90
2019-06-10T12:46:12.902Z,9.13
2019-06-10T12:48:42.673Z,9.00
2019-06-10T12:51:13.879Z,9.15
2019-06-10T12:53:43.450Z,10.78
2019-06-10T12:56:14.866Z,9.78
2019-06-10T12:58:43.343Z,9.10
2019-06-10T13:01:12.258Z,9.85
2019-06-10T13:03:43.754Z,8.95
2019-06-10T13:06:12.878Z,8.95
2019-06-10T13:08:42.800Z,8.40
2019-06-10T13:11:13.386Z,13.25
2019-06-10T13:13:43.561Z,10.78
2019-06-10T13:16:14.205Z,9.20
2019-06-10T13:18:42.882Z,7.67
2019-06-10T13:21:17.204Z,9.00
2019-06-10T13:23:43.242Z,9.10
2019-06-10T13:26:15.985Z,9.80
2019-06-10T13:28:44.052Z,8.97
2019-06-10T13:31:14.001Z,8.50
2019-06-10T13:33:43.240Z,9.70
2019-06-10T13:36:12.869Z,9.50
2019-06-10T13:38:43.379Z,9.28
2019-06-10T13:41:11.989Z,8.63
2019-06-10T13:43:43.235Z,8.15
2019-06-10T13:46:11.152Z,8.30
2019-06-10T13:48:43.082Z,9.15
2019-06-10T13:51:15.208Z,11.40
2019-06-10T13:53:42.619Z,8.53
2019-06-10T13:56:32.003Z,8.90
2019-06-10T13:58:46.324Z,8.50
2019-06-10T14:01:21.102Z,8.27
2019-06-10T14:03:44.133Z,8.70
2019-06-10T14:06:28.460Z,8.85
2019-06-10T14:08:44.829Z,8.87
2019-06-10T14:11:14.267Z,11.03
2019-06-10T14:13:43.333Z,18.67
2019-06-10T14:16:15.072Z,11.60
2019-06-10T14:18:43.293Z,8.37
2019-06-10T14:21:17.994Z,12.90
2019-06-10T14:23:42.594Z,9.13
2019-06-10T14:26:14.783Z,9.45
2019-06-10T14:28:44.209Z,9.33
2019-06-10T14:31:33.685Z,7.63
2019-06-10T14:33:43.015Z,27.65
2019-06-10T14:36:15.065Z,14.80
2019-06-10T14:38:43.491Z,12.43
2019-06-10T14:41:12.347Z,10.48
2019-06-10T14:43:42.383Z,16.90
2019-06-10T14:46:14.344Z,10.58
2019-06-10T14:48:42.656Z,8.87
2019-06-10T14:51:14.901Z,9.20
2019-06-10T14:53:42.734Z,8.60
2019-06-10T14:56:15.979Z,10.00
2019-06-10T14:58:44.798Z,10.23
2019-06-10T15:01:22.050Z,9.85
2019-06-10T15:03:43.904Z,10.17
2019-06-10T15:06:13.504Z,10.20
2019-06-10T15:08:42.869Z,10.00
2019-06-10T15:11:11.759Z,10.20
2019-06-10T15:13:43.290Z,10.45
2019-06-10T15:16:12.189Z,11.30
2019-06-10T15:18:43.156Z,10.60
2019-06-10T15:21:11.413Z,10.25
2019-06-10T15:23:42.744Z,9.20
2019-06-10T15:26:13.131Z,10.17
2019-06-10T15:28:42.762Z,10.03
2019-06-10T15:31:13.500Z,11.38
2019-06-10T15:33:43.075Z,10.32
2019-06-10T15:36:13.102Z,11.20
2019-06-10T15:38:43.868Z,10.25
2019-06-10T15:41:16.032Z,10.53
2019-06-10T15:43:42.718Z,10.72
2019-06-10T15:46:14.594Z,10.78
2019-06-10T15:48:43.215Z,10.65
2019-06-10T15:51:15.378Z,10.68
2019-06-10T15:53:43.089Z,10.88
2019-06-10T15:56:23.749Z,9.55
2019-06-10T15:58:42.984Z,10.18
2019-06-10T16:01:14.470Z,10.35
2019-06-10T16:03:42.470Z,8.90
2019-06-10T16:06:12.133Z,11.48
2019-06-10T16:08:43.026Z,10.88
2019-06-10T16:11:16.312Z,10.38
2019-06-10T16:13:43.028Z,8.83
2019-06-10T16:16:12.804Z,9.65
2019-06-10T16:18:42.354Z,11.65
2019-06-10T16:21:13.365Z,10.08
2019-06-10T16:23:43.060Z,9.88
2019-06-10T16:26:13.078Z,8.65
2019-06-10T16:28:42.791Z,10.18
2019-06-10T16:31:13.162Z,9.90
2019-06-10T16:33:49.287Z,10.60
2019-06-10T16:36:12.389Z,10.45
2019-06-10T16:38:42.329Z,9.80
2019-06-10T16:41:12.316Z,10.60
2019-06-10T16:43:42.888Z,11.85
2019-06-10T16:46:11.612Z,11.50
2019-06-10T16:48:40.249Z,11.03
2019-06-10T16:51:09.170Z,10.48
2019-06-10T16:53:38.819Z,11.05
2019-06-10T16:56:07.442Z,11.15
2019-06-10T16:58:36.093Z,11.65
2019-06-10T17:01:04.732Z,11.68
2019-06-10T17:03:36.196Z,10.32
2019-06-10T17:08:33.826Z,10.65
2019-06-10T17:11:03.386Z,11.22
2019-06-10T17:13:32.316Z,10.65
2019-06-10T17:16:03.404Z,10.93
2019-06-10T17:18:33.660Z,10.30
2019-06-10T17:21:02.926Z,12.00
2019-06-10T17:23:36.188Z,11.68
2019-06-10T17:26:02.957Z,11.50
2019-06-10T17:28:36.361Z,10.63
2019-06-10T17:31:03.909Z,10.75
2019-06-10T17:33:35.483Z,11.75
2019-06-10T17:36:03.559Z,14.07
2019-06-10T17:38:32.293Z,12.10
2019-06-10T17:41:03.019Z,11.85
2019-06-10T17:43:34.015Z,10.03
2019-06-10T17:46:03.333Z,11.22
2019-06-10T17:48:33.620Z,10.55
2019-06-10T17:51:02.647Z,9.43
2019-06-10T17:53:34.634Z,11.90
2019-06-10T17:56:03.194Z,12.20
2019-06-10T17:58:47.618Z,13.88
2019-06-10T18:01:02.586Z,15.38
2019-06-10T18:03:31.417Z,12.98
2019-06-10T18:06:02.595Z,13.10
2019-06-10T18:08:32.341Z,12.75
2019-06-10T18:11:03.300Z,12.37
2019-06-10T18:13:33.095Z,11.85
2019-06-10T18:16:02.720Z,11.90
2019-06-10T18:18:35.642Z,12.45
2019-06-10T18:21:03.362Z,13.60
2019-06-10T18:23:33.073Z,13.28
2019-06-10T18:26:03.318Z,12.20
2019-06-10T18:28:45.572Z,13.58
2019-06-10T18:31:05.021Z,13.20
2019-06-10T18:33:36.051Z,14.98
2019-06-10T18:36:04.157Z,14.60
2019-06-10T18:38:35.601Z,13.22
2019-06-10T18:41:03.495Z,15.50
2019-06-10T18:43:33.790Z,14.85
2019-06-10T18:46:03.422Z,16.00
2019-06-10T18:48:35.969Z,17.07
2019-06-10T18:51:02.623Z,16.02
2019-06-10T18:53:33.503Z,16.23
2019-06-10T18:56:01.619Z,18.42
2019-06-10T18:58:32.989Z,19.57
2019-06-10T19:01:07.493Z,19.27
2019-06-10T19:03:33.410Z,18.25
2019-06-10T19:06:01.513Z,19.42
2019-06-10T19:08:33.970Z,23.45
2019-06-10T19:11:02.454Z,22.32
2019-06-10T19:13:33.688Z,27.42
2019-06-10T19:16:02.366Z,31.77
2019-06-10T19:18:31.891Z,30.08
2019-06-10T19:21:03.557Z,34.27
2019-06-10T19:23:33.411Z,79.62
2019-06-10T19:26:02.947Z,87.08
2019-06-10T19:28:33.863Z,47.17
2019-06-10T19:31:02.537Z,62.60
2019-06-10T19:33:33.919Z,72.08
2019-06-10T19:36:02.238Z,57.70
2019-06-10T19:38:32.419Z,42.03
2019-06-10T19:41:02.701Z,34.55
2019-06-10T19:43:34.959Z,36.20
2019-06-10T19:48:36.308Z,56.10
2019-06-10T19:51:03.270Z,59.40
2019-06-10T19:53:32.979Z,80.62
2019-06-10T19:56:02.637Z,70.40
2019-06-10T19:58:32.362Z,78.60
2019-06-10T20:01:01.090Z,56.13
2019-06-10T20:03:29.714Z,58.25
2019-06-10T20:05:58.361Z,53.70
2019-06-10T20:08:27.094Z,49.73
2019-06-10T20:10:55.745Z,49.95
2019-06-10T20:13:26.040Z,54.45
2019-06-10T20:15:54.663Z,60.78
2019-06-10T20:18:23.373Z,59.53
2019-06-10T20:20:54.001Z,53.73
2019-06-10T20:23:22.383Z,51.70
2019-06-10T20:25:52.695Z,53.63
2019-06-10T20:28:22.376Z,50.85
2019-06-10T20:30:52.974Z,54.13
2019-06-10T20:33:33.668Z,58.17
2019-06-10T20:36:03.507Z,66.60
2019-06-10T20:38:32.543Z,61.30
2019-06-10T20:41:02.622Z,79.85
2019-06-10T20:43:32.890Z,55.98
2019-06-10T20:46:04.381Z,46.80
2019-06-10T20:48:33.215Z,43.98
2019-06-10T20:51:02.899Z,36.13
2019-06-10T20:53:33.782Z,31.93
2019-06-10T20:56:03.823Z,32.75
2019-06-10T20:58:33.230Z,28.45
2019-06-10T21:01:04.357Z,28.87
2019-06-10T21:03:32.582Z,32.48
2019-06-10T21:06:03.375Z,33.18
2019-06-10T21:08:33.793Z,31.23
2019-06-10T21:11:03.714Z,33.85
2019-06-10T21:13:33.052Z,33.08
2019-06-10T21:16:03.543Z,34.23
2019-06-10T21:18:33.040Z,34.45
2019-06-10T21:21:02.003Z,27.20
2019-06-10T21:23:31.070Z,28.95
2019-06-10T21:26:02.530Z,28.70
2019-06-10T21:28:32.438Z,30.00
2019-06-10T21:31:02.828Z,27.77
2019-06-10T21:33:33.184Z,29.20
2019-06-10T21:36:03.971Z,28.42
2019-06-10T21:38:32.262Z,29.57
2019-06-10T21:41:03.311Z,29.35
2019-06-10T21:43:33.075Z,29.23
2019-06-10T21:46:03.618Z,32.38
2019-06-10T21:48:32.504Z,48.33
2019-06-10T21:51:01.203Z,48.23
2019-06-10T21:53:29.910Z,44.20
2019-06-10T21:55:58.562Z,47.30
2019-06-10T21:58:27.177Z,43.35
2019-06-10T22:01:09.806Z,44.30
2019-06-10T22:03:27.336Z,39.08
2019-06-10T22:05:56.061Z,36.23
2019-06-10T22:08:24.807Z,35.88
2019-06-10T22:10:56.173Z,33.92
2019-06-10T22:13:24.030Z,32.98
2019-06-10T22:15:54.779Z,34.27
2019-06-10T22:18:23.240Z,30.88
2019-06-10T22:20:55.977Z,31.93
2019-06-10T22:23:23.220Z,30.08
2019-06-10T22:25:54.339Z,29.55
2019-06-10T22:28:22.553Z,33.40
2019-06-10T22:30:54.095Z,30.90
2019-06-10T22:33:22.580Z,32.55
2019-06-10T22:35:55.391Z,36.00
2019-06-10T22:38:22.279Z,31.95
2019-06-10T22:40:53.668Z,32.08
2019-06-10T22:43:23.585Z,28.45
2019-06-10T22:45:53.852Z,26.07
2019-06-10T22:48:22.626Z,26.30
2019-06-10T22:50:51.367Z,24.92
2019-06-10T22:53:22.966Z,27.25
2019-06-10T22:55:53.034Z,25.48
2019-06-10T22:58:23.675Z,25.50
2019-06-10T23:00:53.230Z,26.15
2019-06-10T23:03:22.036Z,25.40
2019-06-10T23:05:52.244Z,25.17
2019-06-10T23:08:23.023Z,23.50
2019-06-10T23:10:53.739Z,24.20
2019-06-10T23:13:23.142Z,23.52
2019-06-10T23:15:54.008Z,22.93
2019-06-10T23:18:22.597Z,24.18
2019-06-10T23:20:55.407Z,34.53
2019-06-10T23:23:23.302Z,34.73
2019-06-10T23:25:53.695Z,29.25
2019-06-10T23:28:22.508Z,26.55
2019-06-10T23:30:55.375Z,22.93
2019-06-10T23:33:22.956Z,21.40
2019-06-10T23:35:52.567Z,20.70
2019-06-10T23:38:23.567Z,21.48
2019-06-10T23:40:52.773Z,20.10
2019-06-10T23:43:22.504Z,19.95
2019-06-10T23:45:51.452Z,19.15
2019-06-10T23:48:22.582Z,20.65
2019-06-10T23:50:54.055Z,22.35
2019-06-10T23:53:23.168Z,21.02
2019-06-10T23:55:53.422Z,22.20
2019-06-10T23:58:24.921Z,22.30
